Norman Y. Mineta San Jose International Airport
KSJC : now visible

Airfield :











YOU CAN JOIN US ON...

 
LOGIN :

Register | Disclaimer

   EN    FR    IT 

 









Legend :    VFR   Marginal VFR   IFR   Intensive IFR   Very Intensive IFR
Visi :
Ceiling :
>= 8 km
>= 3000ft
5 to 8 km
1000 to 3000 ft
1500m to 5 km
500 to 1000 ft
800 to 1500m
200 to 500 ft
< 800m
< 200 ft
Symbols :   Thunderstorms  Fog  Heavy snow  Heavy precipitations  Wind > 20 kt






- Airport Elevation : 62 ft
- IATA code : SJC


KSJC - Norman Y. Mineta San Jose International

CURRENT METAR :
  • 212053Z 32010KT 10SM FEW006 19/09 A2985 RMK AO2 SLP109 T01940094 58014

EXPIRED METARs :
  • 212006Z VRB03KT 10SM FEW006 20/07 A2986 RMK AO2 T02000067
  • 211953Z 08003KT 10SM FEW019 19/07 A2987 RMK AO2 SLP113 T01940067
  • 211853Z 11005KT 10SM FEW019 18/07 A2989 RMK AO2 SLP120 T01780072

TAF KSJC
Valid from the 21 at 18:00 until the 22 at 18:00 UTC


211739Z 2118/2218 16008KT P6SM FEW025
FM211900 29010KT P6SM FEW030 SCT200
FM220200 33007KT P6SM FEW018 SCT030 BKN200
FM220500 VRB05KT P6SM FEW015 SCT025
FM221000 15009KT P6SM BKN015
FM221700 14008KT P6SM SCT020
KZOA FIR / North America



MET'MAP, your aeronautical weather chart ! - Copyright ORBIFLY December 2007 - Disclaimer

ORBIFLY MET'MAP TEAM :

Programming & Development : Alexandra Zaïnal
Concept & original design : Baudouin d'Aumeries
Assistance for programming : Marc-Olivier Méhu
Technical & hardware support : Manuel Goepfert

Contact : metmap@orbifly.com




SOURCES & CREDITS :

   NOAA       Earth
Advisory